createdAt,value
2018-09-04T00:01:07.945Z,10.77
2018-09-04T00:03:40.557Z,12.07
2018-09-04T00:06:12.907Z,12.03
2018-09-04T00:08:45.143Z,11.67
2018-09-04T00:11:17.876Z,10.67
2018-09-04T00:13:50.444Z,10.53
2018-09-04T00:16:23.503Z,12.10
2018-09-04T00:18:56.121Z,12.23
2018-09-04T00:21:28.514Z,12.17
2018-09-04T00:24:02.300Z,11.60
2018-09-04T00:26:34.886Z,12.13
2018-09-04T00:29:07.648Z,12.00
2018-09-04T00:31:39.792Z,12.10
2018-09-04T00:34:12.340Z,12.33
2018-09-04T00:36:45.075Z,12.37
2018-09-04T00:39:16.982Z,11.73
2018-09-04T00:41:48.969Z,11.70
2018-09-04T00:44:21.018Z,11.60
2018-09-04T00:46:53.219Z,12.17
2018-09-04T00:49:25.166Z,11.30
2018-09-04T00:51:57.104Z,12.00
2018-09-04T00:54:29.663Z,11.73
2018-09-04T00:57:02.086Z,10.60
2018-09-04T00:59:34.380Z,11.30
2018-09-04T01:02:06.893Z,11.23
2018-09-04T01:04:39.435Z,11.63
2018-09-04T01:07:11.752Z,11.43
2018-09-04T01:09:43.931Z,11.27
2018-09-04T01:12:16.200Z,12.00
2018-09-04T01:14:48.357Z,11.93
2018-09-04T01:17:20.441Z,12.03
2018-09-04T01:19:52.394Z,12.30
2018-09-04T01:22:24.464Z,12.03
2018-09-04T01:24:56.659Z,12.37
2018-09-04T01:27:28.729Z,11.17
2018-09-04T01:30:00.933Z,11.73
2018-09-04T01:32:33.174Z,11.70
2018-09-04T01:35:05.594Z,11.20
2018-09-04T01:37:38.104Z,12.03
2018-09-04T01:40:10.158Z,11.50
2018-09-04T01:42:42.188Z,10.97
2018-09-04T01:45:14.400Z,11.47
2018-09-04T01:47:47.349Z,12.27
2018-09-04T01:50:19.671Z,11.33
2018-09-04T01:52:51.751Z,11.67
2018-09-04T01:55:23.833Z,11.67
2018-09-04T01:57:55.921Z,11.80
2018-09-04T02:00:28.281Z,11.97
2018-09-04T02:03:00.855Z,11.77
2018-09-04T02:05:33.041Z,11.73
2018-09-04T02:08:05.335Z,11.77
2018-09-04T02:10:37.627Z,12.20
2018-09-04T02:13:11.039Z,11.70
2018-09-04T02:15:43.251Z,11.30
2018-09-04T02:18:15.439Z,11.83
2018-09-04T02:20:47.400Z,13.23
2018-09-04T02:23:19.328Z,11.97
2018-09-04T02:25:51.413Z,11.47
2018-09-04T02:28:23.288Z,10.63
2018-09-04T02:30:55.529Z,11.23
2018-09-04T02:33:27.613Z,11.13
2018-09-04T02:35:59.677Z,10.83
2018-09-04T02:38:33.056Z,12.50
2018-09-04T02:41:05.684Z,11.87
2018-09-04T02:43:37.814Z,11.87
2018-09-04T02:46:10.054Z,12.70
2018-09-04T02:48:42.450Z,11.43
2018-09-04T02:51:14.618Z,10.47
2018-09-04T02:53:47.547Z,11.50
2018-09-04T02:56:20.107Z,11.10
2018-09-04T02:58:52.468Z,12.70
2018-09-04T03:01:24.681Z,11.30
2018-09-04T03:03:56.611Z,10.90
2018-09-04T03:06:29.619Z,11.47
2018-09-04T03:09:01.775Z,11.07
2018-09-04T03:11:34.044Z,11.43
2018-09-04T03:14:06.064Z,12.07
2018-09-04T03:16:38.526Z,11.87
2018-09-04T03:19:11.039Z,11.93
2018-09-04T03:21:43.274Z,11.10
2018-09-04T03:24:15.878Z,12.37
2018-09-04T03:26:49.816Z,12.13
2018-09-04T03:29:22.050Z,10.93
2018-09-04T03:31:54.085Z,12.20
2018-09-04T03:34:26.722Z,11.63
2018-09-04T03:36:59.068Z,11.30
2018-09-04T03:39:31.395Z,12.73
2018-09-04T03:42:03.420Z,11.63
2018-09-04T03:44:36.827Z,12.20
2018-09-04T03:47:09.251Z,12.90
2018-09-04T03:49:41.125Z,12.63
2018-09-04T03:52:13.169Z,14.37
2018-09-04T03:54:45.285Z,18.10
2018-09-04T03:57:17.488Z,14.90
2018-09-04T03:59:50.049Z,14.23
2018-09-04T04:02:24.366Z,12.97
2018-09-04T04:04:57.187Z,11.90
2018-09-04T04:07:29.473Z,12.73
2018-09-04T04:10:02.321Z,12.83
2018-09-04T04:12:34.794Z,12.37
2018-09-04T04:15:07.330Z,12.57
2018-09-04T04:17:39.302Z,12.20
2018-09-04T04:20:11.870Z,13.00
2018-09-04T04:22:44.175Z,12.47
2018-09-04T04:25:16.450Z,12.23
2018-09-04T04:27:48.725Z,12.27
2018-09-04T04:30:20.990Z,12.50
2018-09-04T04:32:53.539Z,12.43
2018-09-04T04:35:26.551Z,13.63
2018-09-04T04:37:58.905Z,13.00
2018-09-04T04:40:31.393Z,11.67
2018-09-04T04:43:04.118Z,12.70
2018-09-04T04:45:36.633Z,12.90
2018-09-04T04:48:09.657Z,12.93
2018-09-04T04:50:43.102Z,11.90
2018-09-04T04:53:15.226Z,14.57
2018-09-04T04:55:47.599Z,14.83
2018-09-04T04:58:20.502Z,15.43
2018-09-04T05:00:52.998Z,16.83
2018-09-04T05:03:26.561Z,16.43
2018-09-04T05:05:58.927Z,17.03
2018-09-04T05:08:30.897Z,16.47
2018-09-04T05:11:04.238Z,17.50
2018-09-04T05:13:36.622Z,16.77
2018-09-04T05:16:09.336Z,16.27
2018-09-04T05:18:41.764Z,16.80
2018-09-04T05:21:14.534Z,16.57
2018-09-04T05:23:47.180Z,15.13
2018-09-04T05:26:19.646Z,15.67
2018-09-04T05:28:52.087Z,16.53
2018-09-04T05:31:24.248Z,14.33
2018-09-04T05:33:56.762Z,15.07
2018-09-04T05:36:30.570Z,14.90
2018-09-04T05:39:03.165Z,14.93
2018-09-04T05:41:35.457Z,15.03
2018-09-04T05:44:07.405Z,14.40
2018-09-04T05:46:44.552Z,14.63
2018-09-04T05:49:19.465Z,15.47
2018-09-04T05:51:52.277Z,14.33
2018-09-04T05:54:24.777Z,14.00
2018-09-04T05:56:57.696Z,16.20
2018-09-04T05:59:30.009Z,15.33
2018-09-04T06:02:03.195Z,15.67
2018-09-04T06:04:35.647Z,15.23
2018-09-04T06:07:08.072Z,15.87
2018-09-04T06:09:40.522Z,15.13
2018-09-04T06:12:12.800Z,17.53
2018-09-04T06:14:45.582Z,14.70
2018-09-04T06:17:17.428Z,15.37
2018-09-04T06:19:49.985Z,15.97
2018-09-04T06:22:22.026Z,16.10
2018-09-04T06:24:55.089Z,17.47
2018-09-04T06:27:27.899Z,16.97
2018-09-04T06:30:00.522Z,17.13
2018-09-04T06:32:33.043Z,18.10
2018-09-04T06:35:05.374Z,16.07
2018-09-04T06:37:37.741Z,14.93
2018-09-04T06:40:10.223Z,17.27
2018-09-04T06:42:42.643Z,17.13
2018-09-04T06:45:14.972Z,17.83
2018-09-04T06:47:49.206Z,18.70
2018-09-04T06:50:21.976Z,18.00
2018-09-04T06:52:53.932Z,18.40
2018-09-04T06:55:26.603Z,20.70
2018-09-04T06:57:59.969Z,19.10
2018-09-04T07:00:32.412Z,19.27
2018-09-04T07:03:04.782Z,19.83
2018-09-04T07:05:37.110Z,19.97
2018-09-04T07:08:09.783Z,20.00
2018-09-04T07:10:42.466Z,22.43
2018-09-04T07:13:14.947Z,20.73
2018-09-04T07:15:47.469Z,22.33
2018-09-04T07:18:20.019Z,21.77
2018-09-04T07:20:52.589Z,23.13
2018-09-04T07:23:25.827Z,22.47
2018-09-04T07:25:58.800Z,20.97
2018-09-04T07:28:30.779Z,21.57
2018-09-04T07:31:03.529Z,23.37
2018-09-04T07:33:36.366Z,20.90
2018-09-04T07:36:09.011Z,24.00
2018-09-04T07:38:41.411Z,23.37
2018-09-04T07:41:14.608Z,23.30
2018-09-04T07:43:47.737Z,23.27
2018-09-04T07:46:20.149Z,21.67
2018-09-04T07:48:52.511Z,21.60
2018-09-04T07:51:25.298Z,21.50
2018-09-04T07:53:57.694Z,21.97
2018-09-04T07:56:30.222Z,21.33
2018-09-04T07:59:03.066Z,21.90
2018-09-04T08:01:35.660Z,21.73
2018-09-04T08:04:08.120Z,22.73
2018-09-04T08:06:40.532Z,22.33
2018-09-04T08:09:13.215Z,22.10
2018-09-04T08:11:45.629Z,21.17
2018-09-04T08:14:18.458Z,22.47
2018-09-04T08:16:51.451Z,21.97
2018-09-04T08:19:24.569Z,21.97
2018-09-04T08:21:57.052Z,20.27
2018-09-04T08:24:29.291Z,21.73
2018-09-04T08:27:01.493Z,19.57
2018-09-04T08:29:34.339Z,20.53
2018-09-04T08:32:06.665Z,19.67
2018-09-04T08:34:38.629Z,20.77
2018-09-04T08:37:11.103Z,20.30
2018-09-04T08:39:43.734Z,17.30
2018-09-04T08:42:16.209Z,18.50
2018-09-04T08:44:51.661Z,18.60
2018-09-04T08:47:24.174Z,15.30
2018-09-04T08:49:57.018Z,15.20
2018-09-04T08:52:29.012Z,14.63
2018-09-04T08:55:01.835Z,14.13
2018-09-04T08:57:34.504Z,13.53
2018-09-04T09:00:07.512Z,13.80
2018-09-04T09:02:40.563Z,14.30
2018-09-04T09:05:13.157Z,12.43
2018-09-04T09:07:45.539Z,10.07
2018-09-04T09:10:18.066Z,10.13
2018-09-04T09:12:51.718Z,10.53
2018-09-04T09:15:24.304Z,8.67
2018-09-04T09:18:12.293Z,8.07
2018-09-04T09:20:46.794Z,8.13
2018-09-04T09:23:19.678Z,7.77
2018-09-04T09:25:51.940Z,7.17
2018-09-04T09:28:24.946Z,6.73
2018-09-04T09:30:57.793Z,7.33
2018-09-04T09:33:30.006Z,6.90
2018-09-04T09:36:01.938Z,7.33
2018-09-04T09:38:34.666Z,7.53
2018-09-04T09:41:07.779Z,6.73
2018-09-04T09:43:40.222Z,7.27
2018-09-04T09:46:12.407Z,7.23
2018-09-04T09:48:44.682Z,7.17
2018-09-04T09:51:17.421Z,7.47
2018-09-04T09:53:50.052Z,8.03
2018-09-04T09:56:23.316Z,7.60
2018-09-04T09:58:57.065Z,7.80
2018-09-04T10:01:37.048Z,7.30
2018-09-04T10:04:10.239Z,6.97
2018-09-04T10:06:42.471Z,7.70
2018-09-04T10:09:15.348Z,7.57
2018-09-04T10:11:48.135Z,6.83
2018-09-04T10:14:21.096Z,7.00
2018-09-04T10:16:53.707Z,7.20
2018-09-04T10:19:25.785Z,7.70
2018-09-04T10:21:58.104Z,6.63
2018-09-04T10:24:30.377Z,6.70
2018-09-04T10:27:02.593Z,6.67
2018-09-04T10:29:35.070Z,6.83
2018-09-04T10:32:07.390Z,6.20
2018-09-04T10:34:39.699Z,6.97
2018-09-04T10:37:11.915Z,6.50
2018-09-04T10:39:49.215Z,6.90
2018-09-04T10:42:26.617Z,6.13
2018-09-04T10:44:58.729Z,5.83
2018-09-04T10:47:30.890Z,6.23
2018-09-04T10:50:03.399Z,6.30
2018-09-04T10:52:36.178Z,6.23
2018-09-04T10:55:08.885Z,5.90
2018-09-04T10:57:41.018Z,5.80
2018-09-04T11:00:14.710Z,5.70
2018-09-04T11:02:46.787Z,5.77
2018-09-04T11:05:19.370Z,5.70
2018-09-04T11:07:51.542Z,5.60
2018-09-04T11:10:23.926Z,5.70
2018-09-04T11:12:56.398Z,5.57
2018-09-04T11:15:29.006Z,5.70
2018-09-04T11:18:01.346Z,5.97
2018-09-04T11:20:33.700Z,5.73
2018-09-04T11:23:06.256Z,5.70
2018-09-04T11:25:39.359Z,5.50
2018-09-04T11:28:12.121Z,5.50
2018-09-04T11:30:44.563Z,5.20
2018-09-04T11:33:17.132Z,5.50
2018-09-04T11:35:49.198Z,5.23
2018-09-04T11:38:22.009Z,5.43
2018-09-04T11:40:54.035Z,5.23
2018-09-04T11:43:26.020Z,6.17
2018-09-04T11:45:58.201Z,6.27
2018-09-04T11:48:30.797Z,5.80
2018-09-04T11:51:03.710Z,5.50
2018-09-04T11:53:36.311Z,5.60
2018-09-04T11:56:08.428Z,5.80
2018-09-04T11:58:41.156Z,5.70
2018-09-04T12:01:15.283Z,6.47
2018-09-04T12:03:48.072Z,5.93
2018-09-04T12:06:20.244Z,5.53
2018-09-04T12:08:52.874Z,5.70
2018-09-04T12:11:25.657Z,5.27
2018-09-04T12:13:58.984Z,5.13
2018-09-04T12:16:31.473Z,5.43
2018-09-04T12:19:04.388Z,5.03
2018-09-04T12:21:37.370Z,5.03
2018-09-04T12:24:10.083Z,5.33
2018-09-04T12:26:42.601Z,5.00
2018-09-04T12:29:15.221Z,4.80
2018-09-04T12:31:47.736Z,5.47
2018-09-04T12:34:20.390Z,4.90
2018-09-04T12:36:52.820Z,5.13
2018-09-04T12:39:25.269Z,5.30
2018-09-04T12:41:57.796Z,5.07
2018-09-04T12:44:30.704Z,5.40
2018-09-04T12:47:03.330Z,5.07
2018-09-04T12:49:35.684Z,5.77
2018-09-04T12:52:08.174Z,5.30
2018-09-04T12:54:41.913Z,5.20
2018-09-04T12:57:14.502Z,5.17
2018-09-04T12:59:47.039Z,5.27
2018-09-04T13:02:19.198Z,5.50
2018-09-04T13:04:52.364Z,5.47
2018-09-04T13:07:24.917Z,5.30
2018-09-04T13:09:57.798Z,5.50
2018-09-04T13:12:30.203Z,5.53
2018-09-04T13:15:02.552Z,5.10
2018-09-04T13:17:35.102Z,5.17
2018-09-04T13:20:08.632Z,5.30
2018-09-04T13:22:42.180Z,5.07
2018-09-04T13:25:13.964Z,5.13
2018-09-04T13:27:45.943Z,5.33
2018-09-04T13:30:17.966Z,5.20
2018-09-04T13:32:50.873Z,5.57
2018-09-04T13:35:23.064Z,5.30
2018-09-04T13:37:55.213Z,5.73
2018-09-04T13:40:27.723Z,4.67
2018-09-04T13:42:59.661Z,5.67
2018-09-04T13:45:31.839Z,5.10
2018-09-04T13:48:04.588Z,4.53
2018-09-04T13:50:37.147Z,4.87
2018-09-04T13:53:09.380Z,5.17
2018-09-04T13:55:41.944Z,5.13
2018-09-04T13:58:14.121Z,5.53
2018-09-04T14:00:46.313Z,5.10
2018-09-04T14:03:18.661Z,5.03
2018-09-04T14:05:50.958Z,5.00
2018-09-04T14:08:23.917Z,4.80
2018-09-04T14:10:56.336Z,5.20
2018-09-04T14:13:28.850Z,5.03
2018-09-04T14:16:03.588Z,5.20
2018-09-04T14:18:35.735Z,4.87
2018-09-04T14:21:08.093Z,5.20
2018-09-04T14:23:40.594Z,4.97
2018-09-04T14:26:12.636Z,4.60
2018-09-04T14:28:44.775Z,4.93
2018-09-04T14:31:16.976Z,5.73
2018-09-04T14:33:49.113Z,5.20
2018-09-04T14:36:21.215Z,5.37
2018-09-04T14:38:53.244Z,4.70
2018-09-04T14:41:25.968Z,4.60
2018-09-04T14:43:58.468Z,4.93
2018-09-04T14:46:30.736Z,4.53
2018-09-04T14:49:03.944Z,4.67
2018-09-04T14:51:35.937Z,4.87
2018-09-04T14:54:08.156Z,4.60
2018-09-04T14:57:22.435Z,4.70
2018-09-04T14:59:54.746Z,4.90
2018-09-04T15:02:27.436Z,4.73
2018-09-04T15:04:59.601Z,4.80
2018-09-04T15:07:33.437Z,4.23
2018-09-04T15:10:06.773Z,4.77
2018-09-04T15:12:40.289Z,5.10
2018-09-04T15:15:12.814Z,4.97
2018-09-04T15:17:45.305Z,4.77
2018-09-04T15:20:18.573Z,5.23
2018-09-04T15:22:50.976Z,5.37
2018-09-04T15:25:23.684Z,4.67
2018-09-04T15:27:56.169Z,4.73
2018-09-04T15:30:28.726Z,4.63
2018-09-04T15:33:01.168Z,4.83
2018-09-04T15:35:33.180Z,4.60
2018-09-04T15:38:05.913Z,5.50
2018-09-04T15:40:38.407Z,4.80
2018-09-04T15:43:10.888Z,5.00
2018-09-04T15:45:43.402Z,4.90
2018-09-04T15:48:15.420Z,4.57
2018-09-04T15:50:47.918Z,5.03
2018-09-04T15:53:20.054Z,4.90
2018-09-04T15:55:52.906Z,5.03
2018-09-04T15:58:26.211Z,4.10
2018-09-04T16:00:58.626Z,4.47
2018-09-04T16:03:31.454Z,4.30
2018-09-04T16:06:03.829Z,4.90
2018-09-04T16:08:36.286Z,4.90
2018-09-04T16:11:08.675Z,4.43
2018-09-04T16:13:40.743Z,4.27
2018-09-04T16:16:12.930Z,4.70
2018-09-04T16:18:45.136Z,4.33
2018-09-04T16:21:17.297Z,4.40
2018-09-04T16:23:49.374Z,4.50
2018-09-04T16:26:21.737Z,4.70
2018-09-04T16:28:54.388Z,4.10
2018-09-04T16:31:27.101Z,4.93
2018-09-04T16:33:59.276Z,4.67
2018-09-04T16:36:31.419Z,3.90
2018-09-04T16:39:04.058Z,4.97
2018-09-04T16:41:36.259Z,4.43
2018-09-04T16:44:08.299Z,4.57
2018-09-04T16:46:41.227Z,5.30
2018-09-04T16:49:13.656Z,5.30
2018-09-04T16:51:45.768Z,5.13
2018-09-04T16:54:18.170Z,4.83
2018-09-04T16:56:50.554Z,4.70
2018-09-04T16:59:22.824Z,5.63
2018-09-04T17:01:55.684Z,5.40
2018-09-04T17:04:29.353Z,5.77
2018-09-04T17:07:02.416Z,6.10
2018-09-04T17:09:34.367Z,5.90
2018-09-04T17:12:06.859Z,5.70
2018-09-04T17:14:38.997Z,6.10
2018-09-04T17:17:12.102Z,7.17
2018-09-04T17:19:44.068Z,7.40
2018-09-04T17:22:16.074Z,7.13
2018-09-04T17:24:48.390Z,6.20
2018-09-04T17:27:20.384Z,6.13
2018-09-04T17:29:52.775Z,6.07
2018-09-04T17:32:25.239Z,6.50
2018-09-04T17:34:57.711Z,5.63
2018-09-04T17:37:30.109Z,5.33
2018-09-04T17:40:01.640Z,5.10
2018-09-04T17:42:34.185Z,5.60
2018-09-04T17:45:06.267Z,5.20
2018-09-04T17:47:38.388Z,4.70
2018-09-04T17:50:10.677Z,5.47
2018-09-04T17:52:42.537Z,5.50
2018-09-04T17:55:14.189Z,5.50
2018-09-04T17:57:46.500Z,5.80
2018-09-04T18:00:18.945Z,5.13
2018-09-04T18:02:51.335Z,5.40
2018-09-04T18:05:24.237Z,5.43
2018-09-04T18:07:56.308Z,5.50
2018-09-04T18:10:29.883Z,6.13
2018-09-04T18:13:01.895Z,5.70
2018-09-04T18:15:35.251Z,5.47
2018-09-04T18:18:07.594Z,6.73
2018-09-04T18:20:40.808Z,6.00
2018-09-04T18:23:13.001Z,5.90
2018-09-04T18:25:45.130Z,5.67
2018-09-04T18:28:17.529Z,5.83
2018-09-04T18:30:50.360Z,6.03
2018-09-04T18:33:23.011Z,6.20
2018-09-04T18:35:55.273Z,6.07
2018-09-04T18:38:27.980Z,6.40
2018-09-04T18:41:01.040Z,6.17
2018-09-04T18:43:33.880Z,6.40
2018-09-04T18:46:05.980Z,6.90
2018-09-04T18:48:37.778Z,6.30
2018-09-04T18:51:09.935Z,5.83
2018-09-04T18:53:43.091Z,6.20
2018-09-04T18:56:16.369Z,6.67
2018-09-04T18:58:48.717Z,6.50
2018-09-04T19:01:20.958Z,6.37
2018-09-04T19:03:53.388Z,6.40
2018-09-04T19:06:25.791Z,6.70
2018-09-04T19:08:58.048Z,6.60
2018-09-04T19:11:31.107Z,6.50
2018-09-04T19:14:03.532Z,6.93
2018-09-04T19:16:35.923Z,6.80
2018-09-04T19:19:08.318Z,7.00
2018-09-04T19:21:40.768Z,7.13
2018-09-04T19:24:13.952Z,6.53
2018-09-04T19:26:46.341Z,6.27
2018-09-04T19:29:18.952Z,6.90
2018-09-04T19:31:51.510Z,6.77
2018-09-04T19:34:23.762Z,7.60
2018-09-04T19:36:56.216Z,6.90
2018-09-04T19:39:28.608Z,6.00
2018-09-04T19:42:01.170Z,7.40
2018-09-04T19:44:33.276Z,6.70
2018-09-04T19:47:05.265Z,7.07
2018-09-04T19:49:38.159Z,6.67
2018-09-04T19:52:10.366Z,7.60
2018-09-04T19:54:42.780Z,6.80
2018-09-04T19:57:15.166Z,6.73
2018-09-04T19:59:47.418Z,7.40
2018-09-04T20:02:19.598Z,7.10
2018-09-04T20:04:51.898Z,7.13
2018-09-04T20:07:23.996Z,6.70
2018-09-04T20:09:56.120Z,6.53
2018-09-04T20:12:28.455Z,6.13
2018-09-04T20:15:00.487Z,5.80
2018-09-04T20:17:33.482Z,5.60
2018-09-04T20:20:05.667Z,5.33
2018-09-04T20:22:38.312Z,4.80
2018-09-04T20:25:10.562Z,3.83
2018-09-04T20:27:42.842Z,3.63
2018-09-04T20:30:14.933Z,3.50
2018-09-04T20:32:46.944Z,3.40
2018-09-04T20:35:18.939Z,3.60
2018-09-04T20:37:50.929Z,3.43
2018-09-04T20:40:24.303Z,3.00
2018-09-04T20:42:56.574Z,3.80
2018-09-04T20:45:29.018Z,3.17
2018-09-04T20:48:01.234Z,3.23
2018-09-04T20:50:33.896Z,3.10
2018-09-04T20:53:05.787Z,3.10
2018-09-04T20:55:37.730Z,3.03
2018-09-04T20:58:25.818Z,3.10
2018-09-04T21:01:14.728Z,3.13
2018-09-04T21:04:02.951Z,2.70
2018-09-04T21:06:45.061Z,2.70
2018-09-04T21:09:55.613Z,3.17
2018-09-04T21:12:27.944Z,2.70
2018-09-04T21:15:00.580Z,2.70
2018-09-04T21:17:32.842Z,2.90
2018-09-04T21:20:06.599Z,3.40
2018-09-04T21:22:39.475Z,2.90
2018-09-04T21:25:12.678Z,3.17
2018-09-04T21:27:45.956Z,3.03
2018-09-04T21:30:19.603Z,3.30
2018-09-04T21:32:52.622Z,3.70
2018-09-04T21:35:25.788Z,3.23
2018-09-04T21:37:59.451Z,3.43
2018-09-04T21:40:33.594Z,3.70
2018-09-04T21:43:06.483Z,3.37
2018-09-04T21:45:40.112Z,3.63
2018-09-04T21:48:13.197Z,3.40
2018-09-04T21:50:47.177Z,3.20
2018-09-04T21:53:19.900Z,3.10
2018-09-04T21:55:53.690Z,3.13
2018-09-04T21:58:26.461Z,2.90
2018-09-04T22:01:00.017Z,3.17
2018-09-04T22:03:34.916Z,2.80
2018-09-04T22:06:07.213Z,2.97
2018-09-04T22:08:40.472Z,2.90
2018-09-04T22:11:13.950Z,3.20
2018-09-04T22:13:46.590Z,3.33
2018-09-04T22:16:19.920Z,3.83
2018-09-04T22:18:52.481Z,3.23
2018-09-04T22:21:30.126Z,3.30
2018-09-04T22:24:03.631Z,3.50
2018-09-04T22:26:35.761Z,3.60
2018-09-04T22:29:10.214Z,3.17
2018-09-04T22:31:43.320Z,3.77
2018-09-04T22:34:16.305Z,3.57
2018-09-04T22:36:50.389Z,3.37
2018-09-04T22:39:22.977Z,3.80
2018-09-04T22:41:55.467Z,3.60
2018-09-04T22:44:28.249Z,3.17
2018-09-04T22:47:00.577Z,3.57
2018-09-04T22:49:34.784Z,3.70
2018-09-04T22:52:07.869Z,3.20
2018-09-04T22:54:40.468Z,4.07
2018-09-04T22:57:13.413Z,4.03
2018-09-04T22:59:46.047Z,3.63
2018-09-04T23:02:19.022Z,3.60
2018-09-04T23:04:53.240Z,3.97
2018-09-04T23:07:26.229Z,3.40
2018-09-04T23:09:59.579Z,3.50
2018-09-04T23:12:32.166Z,3.77
2018-09-04T23:15:06.256Z,3.83
2018-09-04T23:17:39.095Z,3.73
2018-09-04T23:20:11.747Z,3.53
2018-09-04T23:22:44.490Z,3.63
2018-09-04T23:25:16.910Z,3.80
2018-09-04T23:27:50.079Z,3.73
2018-09-04T23:30:24.091Z,3.50
2018-09-04T23:32:56.828Z,3.90
2018-09-04T23:35:30.493Z,3.83
2018-09-04T23:38:03.319Z,3.70
2018-09-04T23:40:37.493Z,3.57
2018-09-04T23:43:10.084Z,3.80
2018-09-04T23:45:44.050Z,3.97
2018-09-04T23:48:16.673Z,4.00
2018-09-04T23:50:49.492Z,3.80
2018-09-04T23:53:22.497Z,3.90
2018-09-04T23:55:55.625Z,4.13
2018-09-04T23:58:28.493Z,3.90
